createdAt,value
2019-05-02T00:04:42.416Z,63.04
2019-05-02T00:09:48.498Z,63.12
2019-05-02T00:14:51.002Z,63.54
2019-05-02T00:19:54.464Z,62.91
2019-05-02T00:24:57.863Z,63.34
2019-05-02T00:30:01.258Z,63.63
2019-05-02T00:35:06.089Z,63.63
2019-05-02T00:40:09.724Z,63.98
2019-05-02T00:45:14.175Z,64.12
2019-05-02T00:50:18.365Z,64.27
2019-05-02T00:55:21.756Z,64.45
2019-05-02T01:00:25.152Z,64.55
2019-05-02T01:05:28.545Z,64.69
2019-05-02T01:10:32.175Z,64.71
2019-05-02T01:15:39.062Z,64.86
2019-05-02T01:20:40.928Z,64.90
2019-05-02T01:25:47.429Z,63.87
2019-05-02T01:31:00.074Z,63.83
2019-05-02T01:36:08.227Z,63.95
2019-05-02T01:41:11.625Z,63.93
2019-05-02T01:46:17.125Z,64.39
2019-05-02T01:51:20.134Z,64.73
2019-05-02T01:56:23.529Z,64.92
2019-05-02T02:01:26.926Z,65.50
2019-05-02T02:06:30.758Z,65.83
2019-05-02T02:11:35.802Z,66.01
2019-05-02T02:16:40.479Z,65.96
2019-05-02T02:21:51.033Z,65.48
2019-05-02T02:26:54.431Z,64.98
2019-05-02T02:31:57.832Z,64.86
2019-05-02T02:37:05.462Z,65.18
2019-05-02T02:42:06.392Z,65.67
2019-05-02T02:47:12.008Z,65.99
2019-05-02T02:52:14.939Z,66.18
2019-05-02T02:57:25.709Z,66.31
2019-05-02T03:02:23.971Z,66.45
2019-05-02T03:07:28.853Z,66.42
2019-05-02T03:12:45.855Z,66.75
2019-05-02T03:17:49.262Z,66.82
2019-05-02T03:22:52.901Z,67.07
2019-05-02T03:27:56.437Z,67.03
2019-05-02T03:33:09.726Z,67.41
2019-05-02T03:38:05.211Z,67.28
2019-05-02T03:43:08.882Z,67.23
2019-05-02T03:48:18.435Z,67.08
2019-05-02T03:53:25.183Z,66.88
2019-05-02T03:58:22.699Z,66.90
2019-05-02T04:03:26.399Z,67.24
2019-05-02T04:08:30.758Z,67.83
2019-05-02T04:13:36.319Z,67.74
2019-05-02T04:18:40.092Z,67.68
2019-05-02T04:23:44.359Z,67.87
2019-05-02T04:28:51.703Z,68.54
2019-05-02T04:33:52.929Z,68.75
2019-05-02T04:38:59.345Z,68.99
2019-05-02T04:44:01.863Z,68.98
2019-05-02T04:49:05.306Z,69.22
2019-05-02T04:54:09.359Z,69.29
2019-05-02T04:59:17.751Z,69.80
2019-05-02T05:04:18.076Z,69.37
2019-05-02T05:09:21.479Z,69.31
2019-05-02T05:14:25.109Z,69.44
2019-05-02T05:19:32.636Z,69.50
2019-05-02T05:24:38.545Z,69.53
2019-05-02T05:29:40.642Z,69.55
2019-05-02T05:34:44.037Z,69.49
2019-05-02T05:39:48.758Z,69.42
2019-05-02T05:44:52.590Z,68.69
2019-05-02T05:49:57.615Z,68.16
2019-05-02T05:55:01.126Z,68.05
2019-05-02T06:00:12.004Z,67.81
2019-05-02T06:05:13.290Z,67.35
2019-05-02T06:10:16.767Z,67.04
2019-05-02T06:15:20.157Z,66.76
2019-05-02T06:20:25.629Z,65.50
2019-05-02T06:25:34.402Z,62.83
2019-05-02T06:30:34.373Z,62.21
2019-05-02T06:35:37.771Z,61.05
2019-05-02T06:40:44.786Z,60.36
2019-05-02T06:45:46.291Z,59.81
2019-05-02T06:50:49.713Z,58.98
2019-05-02T06:55:53.177Z,58.65
2019-05-02T07:00:58.928Z,58.33
2019-05-02T07:06:02.673Z,57.82
2019-05-02T07:11:07.315Z,57.54
2019-05-02T07:16:37.532Z,57.60
2019-05-02T07:21:29.118Z,57.21
2019-05-02T07:26:32.516Z,57.37
2019-05-02T07:31:35.916Z,56.15
2019-05-02T07:36:39.338Z,55.95
2019-05-02T07:41:42.734Z,54.40
2019-05-02T07:46:51.955Z,53.62
2019-05-02T07:51:52.257Z,53.64
2019-05-02T07:56:56.406Z,52.99
2019-05-02T08:01:59.820Z,51.76
2019-05-02T08:07:03.218Z,53.02
2019-05-02T08:12:06.951Z,51.05
2019-05-02T08:17:16.340Z,51.12
2019-05-02T08:22:15.571Z,50.92
2019-05-02T08:27:23.503Z,50.92
2019-05-02T08:32:26.903Z,50.44
2019-05-02T08:37:30.306Z,51.16
2019-05-02T08:42:33.850Z,49.77
2019-05-02T08:47:37.198Z,48.95
2019-05-02T08:52:42.104Z,49.09
2019-05-02T08:57:45.950Z,49.47
2019-05-02T09:02:49.355Z,46.05
2019-05-02T09:07:52.754Z,47.20
2019-05-02T09:12:56.168Z,45.85
2019-05-02T09:17:59.587Z,46.68
2019-05-02T09:23:03.079Z,45.34
2019-05-02T09:28:06.478Z,42.95
2019-05-02T09:33:11.696Z,42.27
2019-05-02T09:38:16.374Z,42.12
2019-05-02T09:43:19.806Z,42.38
2019-05-02T09:48:26.814Z,39.29
2019-05-02T09:53:28.386Z,41.06
2019-05-02T09:58:32.157Z,40.67
2019-05-02T10:03:35.553Z,38.48
2019-05-02T10:08:43.420Z,39.30
2019-05-02T10:13:44.385Z,39.87
2019-05-02T10:18:48.039Z,39.44
2019-05-02T10:23:58.952Z,38.36
2019-05-02T10:28:56.618Z,38.75
2019-05-02T10:34:02.229Z,37.49
2019-05-02T10:39:07.219Z,38.61
2019-05-02T10:44:12.744Z,38.78
2019-05-02T10:49:17.365Z,36.84
2019-05-02T10:54:23.025Z,37.46
2019-05-02T10:59:26.045Z,39.54
2019-05-02T11:04:32.339Z,35.94
2019-05-02T11:09:35.348Z,35.46
2019-05-02T11:14:46.171Z,35.81
2019-05-02T11:20:01.889Z,35.24
2019-05-02T11:25:07.198Z,35.29
2019-05-02T11:30:12.241Z,34.62
2019-05-02T11:35:15.967Z,34.41
2019-05-02T11:40:19.628Z,33.91
2019-05-02T11:45:23.049Z,33.08
2019-05-02T11:50:26.619Z,32.76
2019-05-02T11:55:31.963Z,33.77
2019-05-02T12:00:35.462Z,34.19
2019-05-02T12:05:42.355Z,34.83
2019-05-02T12:10:45.917Z,34.35
2019-05-02T12:15:51.774Z,36.53
2019-05-02T12:20:54.717Z,38.57
2019-05-02T12:25:58.134Z,38.57
2019-05-02T12:31:02.703Z,39.01
2019-05-02T12:36:08.352Z,39.90
2019-05-02T12:41:20.296Z,39.67
2019-05-02T12:46:16.886Z,40.54
2019-05-02T12:51:22.366Z,38.38
2019-05-02T12:56:25.949Z,38.27
2019-05-02T13:01:29.361Z,37.40
2019-05-02T13:06:33.031Z,36.49
2019-05-02T13:11:52.164Z,35.99
2019-05-02T13:17:01.295Z,35.70
2019-05-02T13:22:02.339Z,36.01
2019-05-02T13:27:08.282Z,35.98
2019-05-02T13:32:18.567Z,35.12
2019-05-02T13:37:22.435Z,34.72
2019-05-02T13:42:25.884Z,34.96
2019-05-02T13:47:29.282Z,35.89
2019-05-02T13:52:33.287Z,35.27
2019-05-02T13:57:43.126Z,32.32
2019-05-02T14:02:43.280Z,32.22
2019-05-02T14:07:53.148Z,34.17
2019-05-02T14:13:03.046Z,33.29
2019-05-02T14:18:06.001Z,34.27
2019-05-02T14:23:09.417Z,35.50
2019-05-02T14:28:13.054Z,34.63
2019-05-02T14:33:18.041Z,34.98
2019-05-02T14:38:22.075Z,35.11
2019-05-02T14:43:46.182Z,35.01
2019-05-02T14:48:48.532Z,34.49
2019-05-02T14:53:52.760Z,34.42
2019-05-02T14:58:57.179Z,33.59
2019-05-02T15:04:06.484Z,35.03
2019-05-02T15:09:08.156Z,35.11
2019-05-02T15:14:18.388Z,34.50
2019-05-02T15:19:16.688Z,32.99
2019-05-02T15:24:20.106Z,33.89
2019-05-02T15:29:27.135Z,33.48
2019-05-02T15:34:35.510Z,34.47
2019-05-02T15:44:43.435Z,35.64
2019-05-02T15:49:46.830Z,34.73
2019-05-02T15:54:55.498Z,35.26
2019-05-02T15:59:55.673Z,35.23
2019-05-02T16:05:02.345Z,34.40
2019-05-02T16:10:06.243Z,34.32
2019-05-02T16:15:19.594Z,34.79
2019-05-02T16:20:17.156Z,34.93
2019-05-02T16:25:24.493Z,34.94
2019-05-02T16:30:26.088Z,35.40
2019-05-02T16:35:31.148Z,36.30
2019-05-02T16:40:35.012Z,35.41
2019-05-02T16:45:38.381Z,37.21
2019-05-02T16:50:43.535Z,36.94
2019-05-02T16:55:46.895Z,36.70
2019-05-02T17:00:50.295Z,37.07
2019-05-02T17:05:54.436Z,37.00
2019-05-02T17:10:59.617Z,36.97
2019-05-02T17:16:06.889Z,37.32
2019-05-02T17:21:08.366Z,38.20
2019-05-02T17:26:12.267Z,37.82
2019-05-02T17:31:19.620Z,38.81
2019-05-02T17:36:28.050Z,39.08
2019-05-02T17:41:25.955Z,39.11
2019-05-02T17:46:29.417Z,39.74
2019-05-02T17:51:37.867Z,39.69
2019-05-02T17:56:42.069Z,39.69
2019-05-02T18:01:45.494Z,40.04
2019-05-02T18:06:53.654Z,40.31
2019-05-02T18:11:54.251Z,40.51
2019-05-02T18:16:57.637Z,43.39
2019-05-02T18:22:03.636Z,54.42
2019-05-02T18:27:06.317Z,58.36
2019-05-02T18:32:09.735Z,59.85
2019-05-02T18:37:13.148Z,60.10
2019-05-02T18:42:21.089Z,59.80
2019-05-02T18:47:24.628Z,60.98
2019-05-02T18:52:36.356Z,61.82
2019-05-02T18:57:32.005Z,61.56
2019-05-02T19:02:35.763Z,61.75
2019-05-02T19:07:39.093Z,62.01
2019-05-02T19:12:42.588Z,63.69
2019-05-02T19:17:46.063Z,65.05
2019-05-02T19:22:54.790Z,65.73
2019-05-02T19:27:59.360Z,66.45
2019-05-02T19:33:07.642Z,65.93
2019-05-02T19:38:07.873Z,65.48
2019-05-02T19:43:14.570Z,65.47
2019-05-02T19:48:16.645Z,65.33
2019-05-02T19:53:20.048Z,65.19
2019-05-02T19:58:23.444Z,64.86
2019-05-02T20:03:26.842Z,64.83
2019-05-02T20:08:32.368Z,65.20
2019-05-02T20:13:35.451Z,65.38
2019-05-02T20:18:43.965Z,65.65
2019-05-02T20:23:44.266Z,66.20
2019-05-02T20:28:47.688Z,66.47
2019-05-02T20:33:52.030Z,67.11
2019-05-02T20:38:55.463Z,67.43
2019-05-02T20:43:58.859Z,68.43
2019-05-02T20:49:02.697Z,68.38
2019-05-02T20:54:06.094Z,68.32
2019-05-02T20:59:09.584Z,68.17
2019-05-02T21:04:12.984Z,68.09
2019-05-02T21:09:18.047Z,68.26
2019-05-02T21:14:21.713Z,68.21
2019-05-02T21:19:25.120Z,68.04
2019-05-02T21:24:28.520Z,69.06
2019-05-02T21:29:32.223Z,68.89
2019-05-02T21:34:35.831Z,69.28
2019-05-02T21:39:39.230Z,69.89
2019-05-02T21:44:42.661Z,70.27
2019-05-02T21:49:52.480Z,70.56
2019-05-02T21:55:03.015Z,70.87
2019-05-02T22:00:12.457Z,70.80
2019-05-02T22:05:16.100Z,71.43
2019-05-02T22:10:19.492Z,70.92
2019-05-02T22:15:23.156Z,71.18
2019-05-02T22:20:26.580Z,71.24
2019-05-02T22:25:32.645Z,71.29
2019-05-02T22:30:36.423Z,71.16
2019-05-02T22:35:43.174Z,70.72
2019-05-02T22:40:46.579Z,70.46
2019-05-02T22:45:49.999Z,69.93
2019-05-02T22:50:53.399Z,69.86
2019-05-02T22:55:56.798Z,69.49
2019-05-02T23:01:01.656Z,69.41
2019-05-02T23:06:05.074Z,69.59
2019-05-02T23:11:08.494Z,69.59
2019-05-02T23:16:11.989Z,69.57
2019-05-02T23:21:15.403Z,69.60
2019-05-02T23:26:22.315Z,69.74
2019-05-02T23:31:25.836Z,70.02
2019-05-02T23:36:32.259Z,69.92
2019-05-02T23:41:35.723Z,69.29
2019-05-02T23:46:39.123Z,69.41
2019-05-02T23:51:42.887Z,69.44
2019-05-02T23:56:46.332Z,69.40
